sensor_id;sensor_type;location;lat;lon;timestamp;pressure;altitude;pressure_sealevel;temperature;humidity
65013;BME280;51715;39.432;-77.518;2023-04-29T00:01:52;99028.10;;;7.77;74.09
65013;BME280;51715;39.432;-77.518;2023-04-29T00:04:20;99017.15;;;8.21;72.51
65013;BME280;51715;39.432;-77.518;2023-04-29T00:06:49;99010.26;;;8.44;71.88
65013;BME280;51715;39.432;-77.518;2023-04-29T00:09:18;99003.51;;;7.86;71.39
65013;BME280;51715;39.432;-77.518;2023-04-29T00:11:46;99002.38;;;7.96;71.87
65013;BME280;51715;39.432;-77.518;2023-04-29T00:14:14;99007.59;;;7.98;72.29
65013;BME280;51715;39.432;-77.518;2023-04-29T00:16:44;99011.64;;;7.82;73.30
65013;BME280;51715;39.432;-77.518;2023-04-29T00:19:12;99003.97;;;7.69;73.28
65013;BME280;51715;39.432;-77.518;2023-04-29T00:21:41;99004.04;;;7.93;72.36
65013;BME280;51715;39.432;-77.518;2023-04-29T00:24:10;99012.92;;;8.28;71.59
65013;BME280;51715;39.432;-77.518;2023-04-29T00:26:39;99017.29;;;8.47;69.39
65013;BME280;51715;39.432;-77.518;2023-04-29T00:29:07;99023.52;;;7.88;71.74
65013;BME280;51715;39.432;-77.518;2023-04-29T00:31:36;99036.55;;;7.48;73.63
65013;BME280;51715;39.432;-77.518;2023-04-29T00:34:05;99036.04;;;8.24;71.04
65013;BME280;51715;39.432;-77.518;2023-04-29T00:36:33;99033.16;;;8.90;69.01
65013;BME280;51715;39.432;-77.518;2023-04-29T00:39:01;99041.08;;;8.35;69.22
65013;BME280;51715;39.432;-77.518;2023-04-29T00:41:30;99046.88;;;9.36;67.39
65013;BME280;51715;39.432;-77.518;2023-04-29T00:44:01;99050.85;;;8.85;68.19
65013;BME280;51715;39.432;-77.518;2023-04-29T00:46:29;99042.77;;;8.91;68.90
65013;BME280;51715;39.432;-77.518;2023-04-29T00:48:58;99006.44;;;8.60;69.76
65013;BME280;51715;39.432;-77.518;2023-04-29T00:51:27;99038.23;;;9.05;68.39
65013;BME280;51715;39.432;-77.518;2023-04-29T00:53:55;99023.61;;;9.01;67.42
65013;BME280;51715;39.432;-77.518;2023-04-29T00:56:24;99027.98;;;8.37;70.85
65013;BME280;51715;39.432;-77.518;2023-04-29T00:58:53;99021.19;;;7.75;72.78
65013;BME280;51715;39.432;-77.518;2023-04-29T01:01:25;99018.77;;;7.73;71.37
65013;BME280;51715;39.432;-77.518;2023-04-29T01:03:56;99022.30;;;8.52;69.04
65013;BME280;51715;39.432;-77.518;2023-04-29T01:06:42;99026.56;;;9.75;64.56
65013;BME280;51715;39.432;-77.518;2023-04-29T01:09:26;99031.19;;;10.40;62.41
65013;BME280;51715;39.432;-77.518;2023-04-29T01:12:07;99034.85;;;10.54;61.94
65013;BME280;51715;39.432;-77.518;2023-04-29T01:14:39;99021.71;;;10.35;62.08
65013;BME280;51715;39.432;-77.518;2023-04-29T01:17:15;99028.65;;;9.69;64.67
65013;BME280;51715;39.432;-77.518;2023-04-29T01:19:48;99026.87;;;10.28;63.49
65013;BME280;51715;39.432;-77.518;2023-04-29T01:22:17;99035.80;;;10.86;61.17
65013;BME280;51715;39.432;-77.518;2023-04-29T01:24:46;99041.07;;;11.50;59.18
65013;BME280;51715;39.432;-77.518;2023-04-29T01:27:27;99041.85;;;10.88;59.01
65013;BME280;51715;39.432;-77.518;2023-04-29T01:30:01;99043.23;;;11.08;59.19
65013;BME280;51715;39.432;-77.518;2023-04-29T01:32:40;99037.24;;;10.77;60.15
65013;BME280;51715;39.432;-77.518;2023-04-29T01:35:19;99039.41;;;10.76;60.49
65013;BME280;51715;39.432;-77.518;2023-04-29T01:37:56;99038.01;;;10.26;60.82
65013;BME280;51715;39.432;-77.518;2023-04-29T01:40:33;99039.71;;;11.35;58.54
65013;BME280;51715;39.432;-77.518;2023-04-29T01:43:04;99044.85;;;11.23;58.66
65013;BME280;51715;39.432;-77.518;2023-04-29T01:45:38;99039.46;;;11.33;57.87
65013;BME280;51715;39.432;-77.518;2023-04-29T01:48:07;99043.58;;;10.89;59.28
65013;BME280;51715;39.432;-77.518;2023-04-29T01:50:36;99042.36;;;10.83;59.80
65013;BME280;51715;39.432;-77.518;2023-04-29T01:53:05;99044.27;;;11.29;58.65
65013;BME280;51715;39.432;-77.518;2023-04-29T01:55:34;99050.34;;;11.62;57.74
65013;BME280;51715;39.432;-77.518;2023-04-29T01:58:03;99057.20;;;11.88;57.32
65013;BME280;51715;39.432;-77.518;2023-04-29T02:00:32;99063.38;;;11.82;55.98
65013;BME280;51715;39.432;-77.518;2023-04-29T02:03:00;99062.89;;;12.74;55.30
65013;BME280;51715;39.432;-77.518;2023-04-29T02:05:28;99069.03;;;11.74;56.37
65013;BME280;51715;39.432;-77.518;2023-04-29T02:07:57;99072.38;;;12.11;55.58
65013;BME280;51715;39.432;-77.518;2023-04-29T02:10:26;99079.76;;;11.74;56.10
65013;BME280;51715;39.432;-77.518;2023-04-29T02:12:56;99073.67;;;12.32;54.86
65013;BME280;51715;39.432;-77.518;2023-04-29T02:15:26;99072.54;;;12.71;53.78
65013;BME280;51715;39.432;-77.518;2023-04-29T02:17:54;99076.10;;;12.72;53.79
65013;BME280;51715;39.432;-77.518;2023-04-29T02:20:24;99073.71;;;12.82;53.09
65013;BME280;51715;39.432;-77.518;2023-04-29T02:22:52;99075.13;;;13.50;52.39
65013;BME280;51715;39.432;-77.518;2023-04-29T02:25:20;99078.67;;;13.60;51.79
65013;BME280;51715;39.432;-77.518;2023-04-29T02:27:50;99077.96;;;13.07;53.30
65013;BME280;51715;39.432;-77.518;2023-04-29T02:30:19;99082.07;;;13.21;52.17
65013;BME280;51715;39.432;-77.518;2023-04-29T02:32:47;99083.81;;;13.55;51.66
65013;BME280;51715;39.432;-77.518;2023-04-29T02:35:16;99087.06;;;12.94;53.59
65013;BME280;51715;39.432;-77.518;2023-04-29T02:37:44;99079.88;;;13.26;52.77
65013;BME280;51715;39.432;-77.518;2023-04-29T02:40:13;99075.96;;;13.61;51.99
65013;BME280;51715;39.432;-77.518;2023-04-29T02:42:41;99067.32;;;13.76;51.59
65013;BME280;51715;39.432;-77.518;2023-04-29T02:45:10;99063.22;;;13.92;51.20
65013;BME280;51715;39.432;-77.518;2023-04-29T02:47:39;99063.04;;;13.85;50.95
65013;BME280;51715;39.432;-77.518;2023-04-29T02:50:07;99063.88;;;13.91;50.84
65013;BME280;51715;39.432;-77.518;2023-04-29T02:52:36;99067.30;;;14.05;50.89
65013;BME280;51715;39.432;-77.518;2023-04-29T02:55:06;99063.09;;;13.92;50.77
65013;BME280;51715;39.432;-77.518;2023-04-29T02:57:33;99057.08;;;13.83;50.73
65013;BME280;51715;39.432;-77.518;2023-04-29T03:00:01;99061.72;;;13.67;51.04
65013;BME280;51715;39.432;-77.518;2023-04-29T03:02:30;99058.49;;;14.03;50.71
65013;BME280;51715;39.432;-77.518;2023-04-29T03:04:59;99060.33;;;13.93;50.63
65013;BME280;51715;39.432;-77.518;2023-04-29T03:07:28;99059.68;;;13.22;52.28
65013;BME280;51715;39.432;-77.518;2023-04-29T03:09:56;99043.66;;;13.63;51.60
65013;BME280;51715;39.432;-77.518;2023-04-29T03:12:25;99036.05;;;13.82;51.29
65013;BME280;51715;39.432;-77.518;2023-04-29T03:14:53;99033.23;;;13.91;51.25
65013;BME280;51715;39.432;-77.518;2023-04-29T03:17:21;99030.72;;;14.00;50.79
65013;BME280;51715;39.432;-77.518;2023-04-29T03:19:50;99026.78;;;14.00;50.59
65013;BME280;51715;39.432;-77.518;2023-04-29T03:22:18;99020.77;;;13.80;51.02
65013;BME280;51715;39.432;-77.518;2023-04-29T03:24:47;99021.38;;;14.14;50.59
65013;BME280;51715;39.432;-77.518;2023-04-29T03:27:14;99017.48;;;14.33;50.32
65013;BME280;51715;39.432;-77.518;2023-04-29T03:29:43;99017.82;;;14.45;49.96
65013;BME280;51715;39.432;-77.518;2023-04-29T03:32:11;99013.31;;;14.43;49.96
65013;BME280;51715;39.432;-77.518;2023-04-29T03:34:40;99017.15;;;14.07;50.45
65013;BME280;51715;39.432;-77.518;2023-04-29T03:37:09;99015.92;;;14.11;50.10
65013;BME280;51715;39.432;-77.518;2023-04-29T03:39:37;99020.21;;;14.48;49.92
65013;BME280;51715;39.432;-77.518;2023-04-29T03:42:06;99014.17;;;14.42;49.67
65013;BME280;51715;39.432;-77.518;2023-04-29T03:44:34;99012.24;;;14.72;49.57
65013;BME280;51715;39.432;-77.518;2023-04-29T03:47:02;99012.10;;;14.24;50.19
65013;BME280;51715;39.432;-77.518;2023-04-29T03:49:31;99019.21;;;12.18;54.85
65013;BME280;51715;39.432;-77.518;2023-04-29T03:51:59;99018.55;;;12.98;53.12
65013;BME280;51715;39.432;-77.518;2023-04-29T03:54:28;99011.74;;;13.50;51.89
65013;BME280;51715;39.432;-77.518;2023-04-29T03:56:56;99011.07;;;13.86;51.76
65013;BME280;51715;39.432;-77.518;2023-04-29T03:59:26;99004.59;;;14.13;50.94
65013;BME280;51715;39.432;-77.518;2023-04-29T04:04:06;98997.92;;;14.30;48.66
65013;BME280;51715;39.432;-77.518;2023-04-29T04:06:34;98998.69;;;14.62;48.56
65013;BME280;51715;39.432;-77.518;2023-04-29T04:09:02;99000.16;;;14.47;48.48
65013;BME280;51715;39.432;-77.518;2023-04-29T04:11:30;99000.73;;;15.10;48.39
65013;BME280;51715;39.432;-77.518;2023-04-29T04:13:59;99000.84;;;14.82;48.58
65013;BME280;51715;39.432;-77.518;2023-04-29T04:16:27;99001.92;;;15.10;49.02
65013;BME280;51715;39.432;-77.518;2023-04-29T04:18:55;99005.77;;;14.82;49.28
65013;BME280;51715;39.432;-77.518;2023-04-29T04:21:24;99006.67;;;14.73;49.39
65013;BME280;51715;39.432;-77.518;2023-04-29T04:23:52;99007.53;;;14.69;49.53
65013;BME280;51715;39.432;-77.518;2023-04-29T04:26:19;99002.95;;;14.66;49.17
65013;BME280;51715;39.432;-77.518;2023-04-29T04:28:47;98996.50;;;14.70;48.91
65013;BME280;51715;39.432;-77.518;2023-04-29T04:31:15;98989.61;;;15.02;49.06
65013;BME280;51715;39.432;-77.518;2023-04-29T04:33:44;98988.59;;;15.25;49.09
65013;BME280;51715;39.432;-77.518;2023-04-29T04:36:12;98984.39;;;14.83;49.04
65013;BME280;51715;39.432;-77.518;2023-04-29T04:38:41;98975.83;;;15.39;49.07
65013;BME280;51715;39.432;-77.518;2023-04-29T04:41:09;98967.65;;;14.98;48.89
65013;BME280;51715;39.432;-77.518;2023-04-29T04:43:36;98960.52;;;15.03;48.67
65013;BME280;51715;39.432;-77.518;2023-04-29T04:46:10;98960.62;;;15.34;48.71
65013;BME280;51715;39.432;-77.518;2023-04-29T04:48:39;98957.80;;;15.09;48.75
65013;BME280;51715;39.432;-77.518;2023-04-29T04:51:08;98949.10;;;14.93;48.97
65013;BME280;51715;39.432;-77.518;2023-04-29T04:53:36;98945.76;;;15.07;48.80
65013;BME280;51715;39.432;-77.518;2023-04-29T04:56:05;98939.33;;;15.40;48.58
65013;BME280;51715;39.432;-77.518;2023-04-29T04:58:34;98932.79;;;15.07;48.49
65013;BME280;51715;39.432;-77.518;2023-04-29T05:01:02;98929.13;;;15.24;48.97
65013;BME280;51715;39.432;-77.518;2023-04-29T05:03:31;98928.48;;;14.71;49.07
65013;BME280;51715;39.432;-77.518;2023-04-29T05:05:59;98927.78;;;14.71;49.14
65013;BME280;51715;39.432;-77.518;2023-04-29T05:08:28;98927.09;;;14.73;49.29
65013;BME280;51715;39.432;-77.518;2023-04-29T05:10:56;98924.79;;;14.98;49.34
65013;BME280;51715;39.432;-77.518;2023-04-29T05:13:25;98921.24;;;14.76;49.72
65013;BME280;51715;39.432;-77.518;2023-04-29T05:15:53;98923.89;;;14.85;49.68
65013;BME280;51715;39.432;-77.518;2023-04-29T05:18:21;98923.74;;;14.75;50.24
65013;BME280;51715;39.432;-77.518;2023-04-29T05:20:49;98923.05;;;14.67;49.98
65013;BME280;51715;39.432;-77.518;2023-04-29T05:23:17;98922.47;;;13.98;50.81
65013;BME280;51715;39.432;-77.518;2023-04-29T05:25:46;98920.69;;;14.56;50.78
65013;BME280;51715;39.432;-77.518;2023-04-29T05:28:15;98923.45;;;14.55;50.60
65013;BME280;51715;39.432;-77.518;2023-04-29T05:30:43;98924.52;;;14.76;50.15
65013;BME280;51715;39.432;-77.518;2023-04-29T05:33:12;98929.85;;;14.70;50.10
65013;BME280;51715;39.432;-77.518;2023-04-29T05:35:40;98928.31;;;14.36;50.65
65013;BME280;51715;39.432;-77.518;2023-04-29T05:38:09;98927.83;;;14.75;50.36
65013;BME280;51715;39.432;-77.518;2023-04-29T05:40:37;98918.18;;;14.96;50.04
65013;BME280;51715;39.432;-77.518;2023-04-29T05:43:05;98916.86;;;14.99;49.74
65013;BME280;51715;39.432;-77.518;2023-04-29T05:45:33;98915.71;;;14.84;49.69
65013;BME280;51715;39.432;-77.518;2023-04-29T05:48:01;98920.72;;;14.57;49.96
65013;BME280;51715;39.432;-77.518;2023-04-29T05:50:29;98923.81;;;14.65;50.37
65013;BME280;51715;39.432;-77.518;2023-04-29T05:52:56;98932.24;;;14.96;50.17
65013;BME280;51715;39.432;-77.518;2023-04-29T05:55:25;98937.32;;;14.24;51.92
65013;BME280;51715;39.432;-77.518;2023-04-29T05:57:53;98941.61;;;14.45;50.88
65013;BME280;51715;39.432;-77.518;2023-04-29T06:00:21;98939.44;;;14.21;51.83
65013;BME280;51715;39.432;-77.518;2023-04-29T06:02:50;98938.95;;;14.64;50.87
65013;BME280;51715;39.432;-77.518;2023-04-29T06:05:18;98936.33;;;15.01;50.35
65013;BME280;51715;39.432;-77.518;2023-04-29T06:07:46;98927.22;;;14.98;50.01
65013;BME280;51715;39.432;-77.518;2023-04-29T06:10:15;98918.93;;;14.85;49.58
65013;BME280;51715;39.432;-77.518;2023-04-29T06:12:43;98910.29;;;14.91;49.62
65013;BME280;51715;39.432;-77.518;2023-04-29T06:15:12;98910.13;;;15.29;49.46
65013;BME280;51715;39.432;-77.518;2023-04-29T06:17:40;98909.08;;;15.15;49.34
65013;BME280;51715;39.432;-77.518;2023-04-29T06:20:09;98904.65;;;15.22;49.23
65013;BME280;51715;39.432;-77.518;2023-04-29T06:22:38;98902.18;;;15.21;49.16
65013;BME280;51715;39.432;-77.518;2023-04-29T06:25:07;98899.92;;;15.28;49.03
65013;BME280;51715;39.432;-77.518;2023-04-29T06:27:35;98893.90;;;15.34;49.01
65013;BME280;51715;39.432;-77.518;2023-04-29T06:30:04;98892.74;;;15.17;49.01
65013;BME280;51715;39.432;-77.518;2023-04-29T06:32:33;98893.33;;;15.45;48.71
65013;BME280;51715;39.432;-77.518;2023-04-29T06:35:00;98892.21;;;15.39;48.83
65013;BME280;51715;39.432;-77.518;2023-04-29T06:37:29;98892.87;;;15.25;48.84
65013;BME280;51715;39.432;-77.518;2023-04-29T06:39:57;98896.46;;;15.47;48.79
65013;BME280;51715;39.432;-77.518;2023-04-29T06:42:25;98891.95;;;15.74;48.88
65013;BME280;51715;39.432;-77.518;2023-04-29T06:44:53;98876.55;;;15.21;48.63
65013;BME280;51715;39.432;-77.518;2023-04-29T06:47:22;98881.60;;;15.31;49.02
65013;BME280;51715;39.432;-77.518;2023-04-29T06:49:50;98893.85;;;15.29;49.48
65013;BME280;51715;39.432;-77.518;2023-04-29T06:52:18;98901.05;;;15.00;49.44
65013;BME280;51715;39.432;-77.518;2023-04-29T06:54:46;98899.17;;;15.04;49.37
65013;BME280;51715;39.432;-77.518;2023-04-29T06:57:15;98896.69;;;15.37;49.25
65013;BME280;51715;39.432;-77.518;2023-04-29T06:59:43;98894.11;;;15.21;49.32
65013;BME280;51715;39.432;-77.518;2023-04-29T07:02:12;98899.59;;;15.29;49.03
65013;BME280;51715;39.432;-77.518;2023-04-29T07:04:40;98912.96;;;15.38;49.02
65013;BME280;51715;39.432;-77.518;2023-04-29T07:07:08;98919.09;;;15.45;49.00
65013;BME280;51715;39.432;-77.518;2023-04-29T07:09:36;98912.46;;;15.55;48.84
65013;BME280;51715;39.432;-77.518;2023-04-29T07:12:04;98906.05;;;15.44;48.51
65013;BME280;51715;39.432;-77.518;2023-04-29T07:14:32;98903.00;;;15.78;48.41
65013;BME280;51715;39.432;-77.518;2023-04-29T07:17:01;98899.27;;;15.57;48.24
65013;BME280;51715;39.432;-77.518;2023-04-29T07:19:30;98893.57;;;15.84;48.11
65013;BME280;51715;39.432;-77.518;2023-04-29T07:21:59;98898.56;;;15.84;48.23
65013;BME280;51715;39.432;-77.518;2023-04-29T07:24:26;98901.10;;;15.80;48.29
65013;BME280;51715;39.432;-77.518;2023-04-29T07:26:54;98904.12;;;15.68;48.35
65013;BME280;51715;39.432;-77.518;2023-04-29T07:29:22;98897.94;;;15.71;48.49
65013;BME280;51715;39.432;-77.518;2023-04-29T07:31:51;98894.21;;;15.70;48.49
65013;BME280;51715;39.432;-77.518;2023-04-29T07:34:19;98895.91;;;15.73;48.46
65013;BME280;51715;39.432;-77.518;2023-04-29T07:36:47;98900.76;;;15.72;48.46
65013;BME280;51715;39.432;-77.518;2023-04-29T07:39:15;98902.69;;;15.64;48.34
65013;BME280;51715;39.432;-77.518;2023-04-29T07:41:43;98900.25;;;15.60;48.32
65013;BME280;51715;39.432;-77.518;2023-04-29T07:44:11;98894.33;;;15.54;48.47
65013;BME280;51715;39.432;-77.518;2023-04-29T07:46:38;98884.09;;;15.57;48.58
65013;BME280;51715;39.432;-77.518;2023-04-29T07:49:06;98878.66;;;15.56;48.54
65013;BME280;51715;39.432;-77.518;2023-04-29T07:51:34;98879.35;;;15.58;48.56
65013;BME280;51715;39.432;-77.518;2023-04-29T07:54:03;98881.35;;;15.57;48.55
65013;BME280;51715;39.432;-77.518;2023-04-29T07:56:31;98885.70;;;15.56;48.55
65013;BME280;51715;39.432;-77.518;2023-04-29T07:59:06;98892.29;;;15.61;48.64
65013;BME280;51715;39.432;-77.518;2023-04-29T08:01:34;98891.70;;;15.66;48.52
65013;BME280;51715;39.432;-77.518;2023-04-29T08:04:02;98890.01;;;15.69;48.36
65013;BME280;51715;39.432;-77.518;2023-04-29T08:06:31;98890.62;;;15.66;48.32
65013;BME280;51715;39.432;-77.518;2023-04-29T08:08:59;98888.04;;;15.56;48.08
65013;BME280;51715;39.432;-77.518;2023-04-29T08:11:27;98884.52;;;15.50;48.10
65013;BME280;51715;39.432;-77.518;2023-04-29T08:13:56;98882.33;;;15.94;47.91
65013;BME280;51715;39.432;-77.518;2023-04-29T08:16:23;98878.06;;;15.35;47.76
65013;BME280;51715;39.432;-77.518;2023-04-29T08:18:51;98874.20;;;15.48;48.17
65013;BME280;51715;39.432;-77.518;2023-04-29T08:21:20;98874.21;;;14.87;48.45
65013;BME280;51715;39.432;-77.518;2023-04-29T08:23:48;98877.66;;;15.24;48.58
65013;BME280;51715;39.432;-77.518;2023-04-29T08:26:16;98880.45;;;15.06;48.72
65013;BME280;51715;39.432;-77.518;2023-04-29T08:28:44;98882.82;;;15.18;48.77
65013;BME280;51715;39.432;-77.518;2023-04-29T08:31:16;98889.95;;;15.28;48.68
65013;BME280;51715;39.432;-77.518;2023-04-29T08:33:45;98895.07;;;15.39;48.54
65013;BME280;51715;39.432;-77.518;2023-04-29T08:36:14;98898.55;;;15.45;48.52
65013;BME280;51715;39.432;-77.518;2023-04-29T08:38:42;98901.84;;;15.47;48.36
65013;BME280;51715;39.432;-77.518;2023-04-29T08:41:10;98905.74;;;15.45;48.38
65013;BME280;51715;39.432;-77.518;2023-04-29T08:43:39;98907.44;;;15.47;48.30
65013;BME280;51715;39.432;-77.518;2023-04-29T08:46:07;98909.64;;;15.49;48.21
65013;BME280;51715;39.432;-77.518;2023-04-29T08:48:37;98909.60;;;15.43;48.13
65013;BME280;51715;39.432;-77.518;2023-04-29T08:51:05;98917.15;;;15.69;47.99
65013;BME280;51715;39.432;-77.518;2023-04-29T08:53:34;98919.69;;;15.45;48.05
65013;BME280;51715;39.432;-77.518;2023-04-29T08:56:08;98921.88;;;15.39;47.90
65013;BME280;51715;39.432;-77.518;2023-04-29T08:58:39;98928.26;;;15.36;47.91
65013;BME280;51715;39.432;-77.518;2023-04-29T09:01:08;98930.30;;;15.38;48.06
65013;BME280;51715;39.432;-77.518;2023-04-29T09:03:43;98930.54;;;15.38;47.92
65013;BME280;51715;39.432;-77.518;2023-04-29T09:06:14;98935.50;;;15.60;47.98
65013;BME280;51715;39.432;-77.518;2023-04-29T09:08:43;98935.74;;;15.32;48.02
65013;BME280;51715;39.432;-77.518;2023-04-29T09:11:13;98930.70;;;15.36;48.02
65013;BME280;51715;39.432;-77.518;2023-04-29T09:13:42;98935.40;;;15.30;48.02
65013;BME280;51715;39.432;-77.518;2023-04-29T09:16:11;98937.07;;;15.33;47.99
65013;BME280;51715;39.432;-77.518;2023-04-29T09:18:45;98938.15;;;15.17;47.89
65013;BME280;51715;39.432;-77.518;2023-04-29T09:21:15;98933.57;;;15.43;48.04
65013;BME280;51715;39.432;-77.518;2023-04-29T09:23:45;98940.02;;;15.11;47.66
65013;BME280;51715;39.432;-77.518;2023-04-29T09:26:14;98938.71;;;14.91;47.62
65013;BME280;51715;39.432;-77.518;2023-04-29T09:28:42;98935.11;;;15.01;47.87
65013;BME280;51715;39.432;-77.518;2023-04-29T09:31:11;98934.84;;;14.76;48.03
65013;BME280;51715;39.432;-77.518;2023-04-29T09:33:56;98932.80;;;15.04;48.33
65013;BME280;51715;39.432;-77.518;2023-04-29T09:36:41;98936.32;;;15.36;48.06
65013;BME280;51715;39.432;-77.518;2023-04-29T09:39:11;98927.91;;;15.05;47.91
65013;BME280;51715;39.432;-77.518;2023-04-29T09:41:42;98920.26;;;15.03;47.72
65013;BME280;51715;39.432;-77.518;2023-04-29T09:44:24;98923.92;;;15.17;47.67
65013;BME280;51715;39.432;-77.518;2023-04-29T09:46:55;98927.93;;;14.94;47.68
65013;BME280;51715;39.432;-77.518;2023-04-29T09:49:25;98925.95;;;14.12;49.36
65013;BME280;51715;39.432;-77.518;2023-04-29T09:51:54;98928.89;;;14.28;49.14
65013;BME280;51715;39.432;-77.518;2023-04-29T09:54:24;98933.36;;;14.35;48.94
65013;BME280;51715;39.432;-77.518;2023-04-29T09:56:53;98933.32;;;14.54;48.86
65013;BME280;51715;39.432;-77.518;2023-04-29T09:59:23;98932.75;;;14.46;48.68
65013;BME280;51715;39.432;-77.518;2023-04-29T10:01:52;98941.13;;;14.46;48.24
65013;BME280;51715;39.432;-77.518;2023-04-29T10:04:23;98945.18;;;14.45;48.45
65013;BME280;51715;39.432;-77.518;2023-04-29T10:06:52;98953.50;;;14.81;48.62
65013;BME280;51715;39.432;-77.518;2023-04-29T10:09:22;98953.98;;;14.88;48.66
65013;BME280;51715;39.432;-77.518;2023-04-29T10:11:51;98953.65;;;14.76;48.59
65013;BME280;51715;39.432;-77.518;2023-04-29T10:14:21;98952.85;;;14.84;48.34
65013;BME280;51715;39.432;-77.518;2023-04-29T10:16:57;98954.09;;;14.62;48.21
65013;BME280;51715;39.432;-77.518;2023-04-29T10:19:30;98944.70;;;15.09;48.24
65013;BME280;51715;39.432;-77.518;2023-04-29T10:22:06;98934.53;;;14.84;48.34
65013;BME280;51715;39.432;-77.518;2023-04-29T10:24:37;98937.40;;;14.88;48.45
65013;BME280;51715;39.432;-77.518;2023-04-29T10:27:07;98939.02;;;15.21;48.22
65013;BME280;51715;39.432;-77.518;2023-04-29T10:29:36;98946.52;;;15.11;48.11
65013;BME280;51715;39.432;-77.518;2023-04-29T10:32:08;98954.65;;;15.18;48.07
65013;BME280;51715;39.432;-77.518;2023-04-29T10:34:37;98969.78;;;15.09;48.40
65013;BME280;51715;39.432;-77.518;2023-04-29T10:37:07;98978.18;;;14.88;48.43
65013;BME280;51715;39.432;-77.518;2023-04-29T10:39:41;98985.19;;;14.89;48.33
65013;BME280;51715;39.432;-77.518;2023-04-29T10:42:19;98983.68;;;15.19;48.26
65013;BME280;51715;39.432;-77.518;2023-04-29T10:45:39;98981.18;;;14.98;48.30
65013;BME280;51715;39.432;-77.518;2023-04-29T10:48:15;98980.24;;;14.85;48.00
65013;BME280;51715;39.432;-77.518;2023-04-29T10:51:28;98980.92;;;15.36;48.00
65013;BME280;51715;39.432;-77.518;2023-04-29T10:53:59;98978.75;;;15.47;47.74
65013;BME280;51715;39.432;-77.518;2023-04-29T10:56:46;98984.94;;;14.89;47.85
65013;BME280;51715;39.432;-77.518;2023-04-29T10:59:19;98981.84;;;14.90;47.83
65013;BME280;51715;39.432;-77.518;2023-04-29T11:01:50;98972.43;;;14.99;48.12
65013;BME280;51715;39.432;-77.518;2023-04-29T11:04:20;98975.25;;;14.90;48.23
65013;BME280;51715;39.432;-77.518;2023-04-29T11:06:51;98977.30;;;15.00;48.26
65013;BME280;51715;39.432;-77.518;2023-04-29T11:09:23;98984.12;;;15.43;48.21
65013;BME280;51715;39.432;-77.518;2023-04-29T11:12:01;98986.83;;;15.05;48.52
65013;BME280;51715;39.432;-77.518;2023-04-29T11:14:32;98977.38;;;14.95;48.50
65013;BME280;51715;39.432;-77.518;2023-04-29T11:17:03;98971.19;;;15.32;48.74
65013;BME280;51715;39.432;-77.518;2023-04-29T11:19:33;98971.95;;;15.28;48.55
65013;BME280;51715;39.432;-77.518;2023-04-29T11:22:13;98972.96;;;15.08;48.50
65013;BME280;51715;39.432;-77.518;2023-04-29T11:24:54;98983.74;;;15.29;48.88
65013;BME280;51715;39.432;-77.518;2023-04-29T11:27:24;98992.40;;;15.40;48.64
65013;BME280;51715;39.432;-77.518;2023-04-29T11:29:55;98996.05;;;15.39;49.35
65013;BME280;51715;39.432;-77.518;2023-04-29T11:32:24;99008.60;;;16.03;49.11
65013;BME280;51715;39.432;-77.518;2023-04-29T11:34:52;99023.58;;;15.98;48.92
65013;BME280;51715;39.432;-77.518;2023-04-29T11:37:22;99026.93;;;16.11;48.38
65013;BME280;51715;39.432;-77.518;2023-04-29T11:39:56;99024.31;;;16.18;47.94
65013;BME280;51715;39.432;-77.518;2023-04-29T11:42:25;99023.28;;;16.01;47.52
65013;BME280;51715;39.432;-77.518;2023-04-29T11:44:54;99023.06;;;16.03;48.03
65013;BME280;51715;39.432;-77.518;2023-04-29T11:47:26;99023.50;;;16.16;48.05
65013;BME280;51715;39.432;-77.518;2023-04-29T11:50:03;99021.03;;;16.07;48.13
65013;BME280;51715;39.432;-77.518;2023-04-29T11:52:32;99011.66;;;16.10;47.80
65013;BME280;51715;39.432;-77.518;2023-04-29T11:55:02;99011.73;;;15.16;49.98
65013;BME280;51715;39.432;-77.518;2023-04-29T11:57:31;99014.13;;;15.28;49.84
65013;BME280;51715;39.432;-77.518;2023-04-29T11:59:59;99020.74;;;15.34;50.12
65013;BME280;51715;39.432;-77.518;2023-04-29T12:02:31;99026.59;;;15.67;49.40
65013;BME280;51715;39.432;-77.518;2023-04-29T12:05:04;99018.02;;;16.21;49.24
65013;BME280;51715;39.432;-77.518;2023-04-29T12:07:34;99016.46;;;16.31;48.96
65013;BME280;51715;39.432;-77.518;2023-04-29T12:10:02;99018.41;;;15.66;49.49
65013;BME280;51715;39.432;-77.518;2023-04-29T12:12:32;99025.09;;;15.68;48.95
65013;BME280;51715;39.432;-77.518;2023-04-29T12:15:01;99036.37;;;15.98;49.32
65013;BME280;51715;39.432;-77.518;2023-04-29T12:17:28;99041.19;;;16.17;48.94
65013;BME280;51715;39.432;-77.518;2023-04-29T12:19:56;99050.30;;;16.41;48.21
65013;BME280;51715;39.432;-77.518;2023-04-29T12:22:31;99046.95;;;16.52;48.07
65013;BME280;51715;39.432;-77.518;2023-04-29T12:25:02;99040.43;;;15.75;48.75
65013;BME280;51715;39.432;-77.518;2023-04-29T12:27:32;99044.20;;;15.38;49.98
65013;BME280;51715;39.432;-77.518;2023-04-29T12:30:00;99040.18;;;15.70;49.39
65013;BME280;51715;39.432;-77.518;2023-04-29T12:32:29;99034.67;;;16.06;49.14
65013;BME280;51715;39.432;-77.518;2023-04-29T12:35:00;99033.97;;;16.21;48.38
65013;BME280;51715;39.432;-77.518;2023-04-29T12:37:28;99035.80;;;16.34;48.02
65013;BME280;51715;39.432;-77.518;2023-04-29T12:39:56;99036.97;;;16.83;48.66
65013;BME280;51715;39.432;-77.518;2023-04-29T12:42:31;99034.20;;;16.33;49.01
65013;BME280;51715;39.432;-77.518;2023-04-29T12:45:01;99026.73;;;16.70;48.59
65013;BME280;51715;39.432;-77.518;2023-04-29T12:47:32;99016.12;;;16.75;48.86
65013;BME280;51715;39.432;-77.518;2023-04-29T12:50:00;99013.38;;;16.91;48.99
65013;BME280;51715;39.432;-77.518;2023-04-29T12:52:29;99011.60;;;15.39;50.57
65013;BME280;51715;39.432;-77.518;2023-04-29T12:54:57;99008.30;;;15.74;51.15
65013;BME280;51715;39.432;-77.518;2023-04-29T12:57:27;99009.18;;;16.37;51.30